createdAt,value
2018-08-13T00:01:16.172Z,5.47
2018-08-13T00:03:50.550Z,4.62
2018-08-13T00:06:23.284Z,5.55
2018-08-13T00:08:53.558Z,5.40
2018-08-13T00:11:25.626Z,5.45
2018-08-13T00:13:59.298Z,5.17
2018-08-13T00:16:30.947Z,5.83
2018-08-13T00:19:01.844Z,5.85
2018-08-13T00:21:33.710Z,5.33
2018-08-13T00:24:03.608Z,5.90
2018-08-13T00:26:33.241Z,5.80
2018-08-13T00:29:03.627Z,5.28
2018-08-13T00:31:34.412Z,5.05
2018-08-13T00:34:04.691Z,5.22
2018-08-13T00:36:34.375Z,5.33
2018-08-13T00:39:04.559Z,5.35
2018-08-13T00:41:34.426Z,5.22
2018-08-13T00:44:10.210Z,5.17
2018-08-13T00:46:42.843Z,5.10
2018-08-13T00:49:13.830Z,5.08
2018-08-13T00:51:44.806Z,6.00
2018-08-13T00:54:20.148Z,5.33
2018-08-13T00:56:50.587Z,5.30
2018-08-13T00:59:26.017Z,5.40
2018-08-13T01:01:57.612Z,5.20
2018-08-13T01:04:29.171Z,5.40
2018-08-13T01:07:05.239Z,5.47
2018-08-13T01:09:39.319Z,5.92
2018-08-13T01:12:12.045Z,5.22
2018-08-13T01:14:42.637Z,5.47
2018-08-13T01:17:18.396Z,5.72
2018-08-13T01:19:48.649Z,6.20
2018-08-13T01:22:19.231Z,5.40
2018-08-13T01:24:48.940Z,5.33
2018-08-13T01:27:23.718Z,5.20
2018-08-13T01:29:53.545Z,5.78
2018-08-13T01:32:23.417Z,5.40
2018-08-13T01:34:53.988Z,5.40
2018-08-13T01:37:24.456Z,5.55
2018-08-13T01:39:54.585Z,5.70
2018-08-13T01:42:25.056Z,5.75
2018-08-13T01:44:54.919Z,5.78
2018-08-13T01:47:25.559Z,6.10
2018-08-13T01:49:56.132Z,6.08
2018-08-13T01:52:26.009Z,6.40
2018-08-13T01:54:55.825Z,6.15
2018-08-13T01:57:25.705Z,6.03
2018-08-13T01:59:55.453Z,6.17
2018-08-13T02:02:26.063Z,5.67
2018-08-13T02:04:56.881Z,6.60
2018-08-13T02:07:27.231Z,6.28
2018-08-13T02:09:57.917Z,6.60
2018-08-13T02:12:29.274Z,6.70
2018-08-13T02:14:59.586Z,6.60
2018-08-13T02:17:29.923Z,6.40
2018-08-13T02:19:59.706Z,6.00
2018-08-13T02:22:31.160Z,6.47
2018-08-13T02:25:01.198Z,6.87
2018-08-13T02:27:31.888Z,7.40
2018-08-13T02:30:01.862Z,7.37
2018-08-13T02:32:31.743Z,7.17
2018-08-13T02:35:02.636Z,6.78
2018-08-13T02:37:32.658Z,6.15
2018-08-13T02:40:02.442Z,6.40
2018-08-13T02:42:32.382Z,6.85
2018-08-13T02:45:03.399Z,6.92
2018-08-13T02:47:33.554Z,7.75
2018-08-13T02:50:04.239Z,6.83
2018-08-13T02:52:33.936Z,7.05
2018-08-13T02:55:03.706Z,7.00
2018-08-13T02:57:33.675Z,6.97
2018-08-13T03:00:03.887Z,5.85
2018-08-13T03:02:34.416Z,6.55
2018-08-13T03:05:04.770Z,6.67
2018-08-13T03:07:34.854Z,6.53
2018-08-13T03:10:06.376Z,7.28
2018-08-13T03:12:36.208Z,6.83
2018-08-13T03:15:10.901Z,6.97
2018-08-13T03:17:40.721Z,6.92
2018-08-13T03:20:11.007Z,6.92
2018-08-13T03:22:41.845Z,6.92
2018-08-13T03:25:13.341Z,6.58
2018-08-13T03:27:43.009Z,7.22
2018-08-13T03:30:13.839Z,7.12
2018-08-13T03:32:43.744Z,6.22
2018-08-13T03:35:16.028Z,6.97
2018-08-13T03:37:46.441Z,7.03
2018-08-13T03:40:17.693Z,7.08
2018-08-13T03:42:53.203Z,6.50
2018-08-13T03:45:24.395Z,6.78
2018-08-13T03:47:54.327Z,7.03
2018-08-13T03:50:25.262Z,7.33
2018-08-13T03:52:56.462Z,6.67
2018-08-13T03:55:26.531Z,6.33
2018-08-13T03:58:04.212Z,7.03
2018-08-13T04:00:36.331Z,7.10
2018-08-13T04:03:19.259Z,6.70
2018-08-13T04:05:51.499Z,6.22
2018-08-13T04:08:21.927Z,7.08
2018-08-13T04:10:53.072Z,6.47
2018-08-13T04:13:24.120Z,5.62
2018-08-13T04:15:54.338Z,6.08
2018-08-13T04:18:26.419Z,6.70
2018-08-13T04:20:56.671Z,6.55
2018-08-13T04:23:31.394Z,6.17
2018-08-13T04:26:01.251Z,6.28
2018-08-13T04:28:32.237Z,6.67
2018-08-13T04:31:02.620Z,6.95
2018-08-13T04:33:32.256Z,5.95
2018-08-13T04:36:04.696Z,7.95
2018-08-13T04:38:34.438Z,7.25
2018-08-13T04:41:05.576Z,7.25
2018-08-13T04:43:35.255Z,6.80
2018-08-13T04:46:04.918Z,7.83
2018-08-13T04:48:35.228Z,7.42
2018-08-13T04:51:05.078Z,6.25
2018-08-13T04:53:35.464Z,6.65
2018-08-13T04:56:07.806Z,6.67
2018-08-13T04:58:39.476Z,6.65
2018-08-13T05:01:09.398Z,6.67
2018-08-13T05:03:40.487Z,7.03
2018-08-13T05:06:19.513Z,6.47
2018-08-13T05:08:49.291Z,5.92
2018-08-13T05:11:20.136Z,6.65
2018-08-13T05:13:50.163Z,6.55
2018-08-13T05:16:20.228Z,6.42
2018-08-13T05:18:52.578Z,6.00
2018-08-13T05:21:23.681Z,6.50
2018-08-13T05:23:55.703Z,6.42
2018-08-13T05:26:25.806Z,6.90
2018-08-13T05:28:55.800Z,6.70
2018-08-13T05:31:25.400Z,6.17
2018-08-13T05:33:55.590Z,5.92
2018-08-13T05:36:25.899Z,6.12
2018-08-13T05:38:56.035Z,7.40
2018-08-13T05:41:25.776Z,6.60
2018-08-13T05:43:56.916Z,6.92
2018-08-13T05:46:27.055Z,6.80
2018-08-13T05:48:56.803Z,6.85
2018-08-13T05:51:35.050Z,6.28
2018-08-13T05:54:06.073Z,7.30
2018-08-13T05:56:38.577Z,7.03
2018-08-13T05:59:09.459Z,7.03
2018-08-13T06:01:39.912Z,7.20
2018-08-13T06:04:11.205Z,7.03
2018-08-13T06:06:41.760Z,8.10
2018-08-13T06:09:13.581Z,7.62
2018-08-13T06:11:43.584Z,9.20
2018-08-13T06:14:14.037Z,8.35
2018-08-13T06:16:45.000Z,7.85
2018-08-13T06:19:19.857Z,7.30
2018-08-13T06:21:50.822Z,7.40
2018-08-13T06:24:21.624Z,7.72
2018-08-13T06:26:55.281Z,7.47
2018-08-13T06:29:26.283Z,7.83
2018-08-13T06:31:56.349Z,7.72
2018-08-13T06:34:27.646Z,7.72
2018-08-13T06:37:00.037Z,7.10
2018-08-13T06:39:32.280Z,7.30
2018-08-13T06:42:03.210Z,7.85
2018-08-13T06:44:34.531Z,8.95
2018-08-13T06:47:05.383Z,8.10
2018-08-13T06:49:37.916Z,8.70
2018-08-13T06:52:12.231Z,10.63
2018-08-13T06:54:45.051Z,8.38
2018-08-13T06:57:15.150Z,7.95
2018-08-13T06:59:47.014Z,8.60
2018-08-13T07:02:17.502Z,8.10
2018-08-13T07:04:48.274Z,8.53
2018-08-13T07:07:18.755Z,7.78
2018-08-13T07:09:49.267Z,7.80
2018-08-13T07:12:19.214Z,7.62
2018-08-13T07:14:50.968Z,6.80
2018-08-13T07:17:21.520Z,6.28
2018-08-13T07:19:52.001Z,6.28
2018-08-13T07:22:22.756Z,6.00
2018-08-13T07:24:54.939Z,6.47
2018-08-13T07:27:28.935Z,6.28
2018-08-13T07:29:59.515Z,5.58
2018-08-13T07:32:31.121Z,5.87
2018-08-13T07:35:02.646Z,6.10
2018-08-13T07:37:36.272Z,5.78
2018-08-13T07:40:09.329Z,5.83
2018-08-13T07:42:43.106Z,5.00
2018-08-13T07:45:14.063Z,5.25
2018-08-13T07:47:46.822Z,4.95
2018-08-13T07:50:18.272Z,5.67
2018-08-13T07:52:49.552Z,5.75
2018-08-13T07:55:20.298Z,4.80
2018-08-13T07:57:50.878Z,5.00
2018-08-13T08:00:24.757Z,4.67
2018-08-13T08:03:03.487Z,5.20
2018-08-13T08:05:38.776Z,5.25
2018-08-13T08:08:15.296Z,5.30
2018-08-13T08:10:48.884Z,4.50
2018-08-13T08:13:22.611Z,5.15
2018-08-13T08:15:57.786Z,4.92
2018-08-13T08:18:30.309Z,5.30
2018-08-13T08:21:04.905Z,5.58
2018-08-13T08:23:37.867Z,4.90
2018-08-13T08:26:12.995Z,5.35
2018-08-13T08:59:38.685Z,5.33
2018-08-13T09:07:53.899Z,5.17
2018-08-13T09:10:53.055Z,5.55
2018-08-13T09:36:37.534Z,5.00
2018-08-13T09:47:19.463Z,4.87
2018-08-13T09:49:59.020Z,5.72
2018-08-13T09:52:34.357Z,5.28
2018-08-13T09:55:18.886Z,5.53
2018-08-13T09:58:01.022Z,5.05
2018-08-13T10:03:38.013Z,4.95
2018-08-13T10:06:14.382Z,5.58
2018-08-13T10:08:45.538Z,4.55
2018-08-13T10:11:15.411Z,5.12
2018-08-13T10:13:48.717Z,5.15
2018-08-13T10:19:29.712Z,5.35
2018-08-13T10:22:00.475Z,4.97
2018-08-13T10:24:30.802Z,4.97
2018-08-13T10:27:06.355Z,4.70
2018-08-13T10:29:36.712Z,4.42
2018-08-13T10:32:07.309Z,4.35
2018-08-13T10:34:37.483Z,4.17
2018-08-13T10:37:07.939Z,4.80
2018-08-13T10:39:38.008Z,4.72
2018-08-13T10:42:08.818Z,4.70
2018-08-13T10:48:25.606Z,4.62
2018-08-13T10:59:18.415Z,5.47
2018-08-13T11:01:49.564Z,4.80
2018-08-13T11:04:23.135Z,4.60
2018-08-13T11:06:55.598Z,4.45
2018-08-13T11:12:08.065Z,5.30
2018-08-13T11:14:50.159Z,5.30
2018-08-13T11:17:31.029Z,4.55
2018-08-13T11:20:07.173Z,5.30
2018-08-13T11:22:42.357Z,4.78
2018-08-13T11:25:21.960Z,4.67
2018-08-13T11:27:54.229Z,4.67
2018-08-13T11:30:30.359Z,5.20
2018-08-13T11:33:08.289Z,4.80
2018-08-13T11:35:46.295Z,5.08
2018-08-13T11:38:29.917Z,4.78
2018-08-13T11:41:11.941Z,4.87
2018-08-13T11:43:49.802Z,4.87
2018-08-13T11:46:23.467Z,4.90
2018-08-13T11:48:58.669Z,5.42
2018-08-13T11:51:38.097Z,4.87
2018-08-13T11:54:11.763Z,5.08
2018-08-13T11:56:51.121Z,5.05
2018-08-13T11:59:39.377Z,5.10
2018-08-13T12:02:16.264Z,5.20
2018-08-13T12:05:03.494Z,5.25
2018-08-13T12:10:32.404Z,4.70
2018-08-13T12:13:10.286Z,4.72
2018-08-13T12:15:54.074Z,4.45
2018-08-13T12:18:34.836Z,4.95
2018-08-13T12:21:08.102Z,4.67
2018-08-13T12:23:42.023Z,5.30
2018-08-13T12:26:14.258Z,5.40
2018-08-13T12:28:53.185Z,4.55
2018-08-13T12:31:35.259Z,4.90
2018-08-13T12:34:19.620Z,5.10
2018-08-13T12:39:48.598Z,4.85
2018-08-13T12:42:21.084Z,5.75
2018-08-13T12:47:45.435Z,5.08
2018-08-13T12:50:21.516Z,5.17
2018-08-13T12:53:01.234Z,5.17
2018-08-13T12:55:43.837Z,4.53
2018-08-13T12:58:22.105Z,5.25
2018-08-13T13:01:12.605Z,5.42
2018-08-13T13:06:33.666Z,5.20
2018-08-13T13:09:08.924Z,5.80
2018-08-13T13:11:44.538Z,5.17
2018-08-13T13:14:18.917Z,5.28
2018-08-13T13:16:55.240Z,5.40
2018-08-13T13:19:28.521Z,5.42
2018-08-13T13:22:04.700Z,5.35
2018-08-13T13:24:47.645Z,5.45
2018-08-13T13:27:24.924Z,4.95
2018-08-13T13:29:59.033Z,5.40
2018-08-13T13:32:44.389Z,5.22
2018-08-13T13:35:21.294Z,5.08
2018-08-13T13:37:55.950Z,5.00
2018-08-13T13:40:30.481Z,4.53
2018-08-13T13:43:10.107Z,4.70
2018-08-13T13:45:48.905Z,5.08
2018-08-13T13:48:24.957Z,5.37
2018-08-13T13:51:01.463Z,5.55
2018-08-13T13:53:36.388Z,5.58
2018-08-13T13:56:16.022Z,5.75
2018-08-13T14:03:43.040Z,5.70
2018-08-13T14:06:17.963Z,5.83
2018-08-13T14:08:53.940Z,6.37
2018-08-13T14:11:25.790Z,5.72
2018-08-13T14:13:56.729Z,5.33
2018-08-13T14:22:47.589Z,5.25
2018-08-13T14:52:00.946Z,5.47
2018-08-13T14:54:35.075Z,5.10
2018-08-13T14:57:09.983Z,5.70
2018-08-13T14:59:43.697Z,5.33
2018-08-13T15:02:14.639Z,6.03
2018-08-13T15:04:50.313Z,6.03
2018-08-13T15:07:23.205Z,5.85
2018-08-13T15:09:54.806Z,5.60
2018-08-13T15:12:28.179Z,5.42
2018-08-13T15:14:59.838Z,5.67
2018-08-13T15:17:29.708Z,5.60
2018-08-13T15:20:00.699Z,5.28
2018-08-13T15:22:35.671Z,5.55
2018-08-13T15:25:09.063Z,5.65
2018-08-13T15:27:40.598Z,5.53
2018-08-13T15:30:19.484Z,5.45
2018-08-13T15:32:51.678Z,5.20
2018-08-13T15:35:22.424Z,4.97
2018-08-13T15:37:53.411Z,5.58
2018-08-13T15:40:24.488Z,4.80
2018-08-13T15:43:00.469Z,5.58
2018-08-13T15:45:33.621Z,5.85
2018-08-13T15:48:06.004Z,6.40
2018-08-13T15:50:37.546Z,5.28
2018-08-13T15:53:09.605Z,5.53
2018-08-13T15:55:41.573Z,6.05
2018-08-13T15:58:20.186Z,6.03
2018-08-13T16:00:51.893Z,5.90
2018-08-13T16:03:23.253Z,6.30
2018-08-13T16:05:55.314Z,5.42
2018-08-13T16:08:27.601Z,5.45
2018-08-13T16:10:59.622Z,6.17
2018-08-13T16:13:30.951Z,5.78
2018-08-13T16:16:04.902Z,5.83
2018-08-13T16:18:35.005Z,5.62
2018-08-13T16:21:11.681Z,5.85
2018-08-13T16:23:43.426Z,5.20
2018-08-13T16:26:15.355Z,5.35
2018-08-13T16:28:48.222Z,5.75
2018-08-13T16:31:21.724Z,6.15
2018-08-13T16:33:53.223Z,5.80
2018-08-13T16:36:31.051Z,5.70
2018-08-13T16:39:04.693Z,5.35
2018-08-13T16:41:37.188Z,5.78
2018-08-13T16:44:09.934Z,5.83
2018-08-13T16:46:51.116Z,6.12
2018-08-13T16:49:21.427Z,6.55
2018-08-13T16:51:51.915Z,5.97
2018-08-13T16:54:23.869Z,5.05
2018-08-13T16:56:54.727Z,5.30
2018-08-13T16:59:26.065Z,5.22
2018-08-13T17:02:00.276Z,5.72
2018-08-13T17:04:33.025Z,6.17
2018-08-13T17:07:04.225Z,6.47
2018-08-13T17:09:34.954Z,6.70
2018-08-13T17:12:06.945Z,6.53
2018-08-13T17:14:36.843Z,6.55
2018-08-13T17:17:06.652Z,7.28
2018-08-13T17:19:36.364Z,6.80
2018-08-13T17:22:09.115Z,7.50
2018-08-13T17:24:40.412Z,7.30
2018-08-13T17:27:12.420Z,7.10
2018-08-13T17:29:43.448Z,7.60
2018-08-13T17:32:14.761Z,8.10
2018-08-13T17:34:46.531Z,7.70
2018-08-13T17:37:18.671Z,8.35
2018-08-13T17:39:50.696Z,7.90
2018-08-13T17:42:24.436Z,7.95
2018-08-13T17:44:55.207Z,7.50
2018-08-13T17:47:30.439Z,7.08
2018-08-13T17:50:01.769Z,8.33
2018-08-13T17:52:33.725Z,8.28
2018-08-13T17:55:08.162Z,7.45
2018-08-13T17:57:46.036Z,7.47
2018-08-13T18:03:08.353Z,7.87
2018-08-13T18:05:40.179Z,7.28
2018-08-13T18:08:14.324Z,8.10
2018-08-13T18:10:49.419Z,7.90
2018-08-13T18:13:19.753Z,8.33
2018-08-13T18:15:50.106Z,8.10
2018-08-13T18:18:19.921Z,8.10
2018-08-13T18:20:50.289Z,7.55
2018-08-13T18:23:21.116Z,8.00
2018-08-13T18:25:52.252Z,8.28
2018-08-13T18:28:50.606Z,8.68
2018-08-13T18:34:32.090Z,8.60
2018-08-13T18:37:06.895Z,7.40
2018-08-13T18:39:39.600Z,8.70
2018-08-13T18:42:09.707Z,8.48
2018-08-13T18:44:50.308Z,8.80
2018-08-13T18:47:23.091Z,8.38
2018-08-13T18:49:53.664Z,8.43
2018-08-13T18:52:31.625Z,7.95
2018-08-13T18:55:01.983Z,8.25
2018-08-13T18:57:32.724Z,8.25
2018-08-13T19:00:03.163Z,8.60
2018-08-13T19:02:34.811Z,9.00
2018-08-13T19:05:05.167Z,8.18
2018-08-13T19:07:36.295Z,9.18
2018-08-13T19:10:08.824Z,8.43
2018-08-13T19:12:40.298Z,9.00
2018-08-13T19:15:17.657Z,8.68
2018-08-13T19:17:49.064Z,8.18
2018-08-13T19:20:21.159Z,8.65
2018-08-13T19:22:53.567Z,8.88
2018-08-13T19:25:30.917Z,7.78
2018-08-13T19:28:05.456Z,7.70
2018-08-13T19:30:41.627Z,7.90
2018-08-13T19:33:18.763Z,8.28
2018-08-13T19:35:51.474Z,8.83
2018-08-13T19:38:33.898Z,8.20
2018-08-13T19:41:15.693Z,7.10
2018-08-13T19:43:50.551Z,8.30
2018-08-13T19:46:22.510Z,7.15
2018-08-13T19:48:56.010Z,8.20
2018-08-13T19:51:36.961Z,7.25
2018-08-13T19:54:14.300Z,7.15
2018-08-13T19:56:57.809Z,7.50
2018-08-13T19:59:45.152Z,8.15
2018-08-13T20:02:31.815Z,7.17
2018-08-13T20:05:21.221Z,7.00
2018-08-13T20:08:16.105Z,7.95
2018-08-13T20:10:51.385Z,7.65
2018-08-13T20:13:32.502Z,7.33
2018-08-13T20:16:05.689Z,7.65
2018-08-13T20:18:54.241Z,7.28
2018-08-13T20:24:31.397Z,7.78
2018-08-13T20:45:16.629Z,8.38
2018-08-13T20:48:04.769Z,7.95
2018-08-13T20:56:53.817Z,4.28
2018-08-13T20:59:49.827Z,4.17
2018-08-13T21:02:50.788Z,3.45
2018-08-13T21:05:35.777Z,3.70
2018-08-13T21:08:11.345Z,3.50
2018-08-13T21:10:59.928Z,3.10
2018-08-13T21:13:53.716Z,3.65
2018-08-13T21:30:52.428Z,2.83
2018-08-13T21:44:16.553Z,3.00
2018-08-13T21:47:04.129Z,2.92
2018-08-13T21:50:04.283Z,2.55
2018-08-13T21:52:45.458Z,2.70
2018-08-13T21:55:26.506Z,2.40
2018-08-13T21:58:09.102Z,2.98
2018-08-13T22:04:17.401Z,3.12
2018-08-13T22:09:54.107Z,3.00
2018-08-13T22:15:36.729Z,2.67
2018-08-13T22:18:11.376Z,2.75
2018-08-13T22:20:51.318Z,2.72
2018-08-13T22:23:36.016Z,2.98
2018-08-13T22:26:13.994Z,3.15
2018-08-13T22:28:49.559Z,2.80
2018-08-13T22:31:33.662Z,2.85
2018-08-13T22:34:18.137Z,3.42
2018-08-13T22:37:13.704Z,2.65
2018-08-13T22:39:53.143Z,2.75
2018-08-13T22:49:08.004Z,2.33
2018-08-13T22:51:51.728Z,2.80
2018-08-13T22:54:54.941Z,2.72
2018-08-13T23:00:19.241Z,2.47
2018-08-13T23:02:58.367Z,2.47
2018-08-13T23:05:32.694Z,2.37
2018-08-13T23:08:09.809Z,2.67
2018-08-13T23:10:42.922Z,2.40
2018-08-13T23:16:30.930Z,2.47
2018-08-13T23:21:54.665Z,2.35
2018-08-13T23:24:26.770Z,2.30
2018-08-13T23:27:21.813Z,2.12
2018-08-13T23:30:14.360Z,2.27
2018-08-13T23:33:04.014Z,2.62
2018-08-13T23:35:37.126Z,2.20
2018-08-13T23:38:09.673Z,2.20
2018-08-13T23:40:42.635Z,2.00
2018-08-13T23:43:24.585Z,2.12
2018-08-13T23:45:58.853Z,2.20
2018-08-13T23:48:55.191Z,2.40
2018-08-13T23:51:39.186Z,2.15
2018-08-13T23:54:30.312Z,2.10
